sensor_id;sensor_type;location;lat;lon;timestamp;pressure;altitude;pressure_sealevel;temperature;humidity
75008;BME280;63554;48.940;12.050;2023-07-02T00:02:26;96688.50;;;16.11;94.35
75008;BME280;63554;48.940;12.050;2023-07-02T00:06:29;96683.31;;;16.14;93.82
75008;BME280;63554;48.940;12.050;2023-07-02T00:10:35;96685.78;;;16.21;93.10
75008;BME280;63554;48.940;12.050;2023-07-02T00:14:38;96685.78;;;16.16;93.35
75008;BME280;63554;48.940;12.050;2023-07-02T00:18:42;96689.31;;;16.11;93.30
75008;BME280;63554;48.940;12.050;2023-07-02T00:22:44;96693.66;;;16.07;93.51
75008;BME280;63554;48.940;12.050;2023-07-02T00:26:48;96685.75;;;16.00;94.21
75008;BME280;63554;48.940;12.050;2023-07-02T00:30:50;96691.75;;;16.02;94.49
75008;BME280;63554;48.940;12.050;2023-07-02T00:34:54;96685.50;;;16.02;94.24
75008;BME280;63554;48.940;12.050;2023-07-02T00:38:58;96688.47;;;16.00;94.67
75008;BME280;63554;48.940;12.050;2023-07-02T00:43:00;96681.41;;;15.99;94.15
75008;BME280;63554;48.940;12.050;2023-07-02T00:47:03;96685.78;;;16.06;93.87
75008;BME280;63554;48.940;12.050;2023-07-02T00:51:07;96687.94;;;16.09;93.53
75008;BME280;63554;48.940;12.050;2023-07-02T00:55:11;96683.88;;;16.11;92.92
75008;BME280;63554;48.940;12.050;2023-07-02T00:59:14;96683.03;;;16.16;91.25
75008;BME280;63554;48.940;12.050;2023-07-02T01:03:16;96685.78;;;16.26;90.36
75008;BME280;63554;48.940;12.050;2023-07-02T01:07:20;96690.69;;;16.29;90.46
75008;BME280;63554;48.940;12.050;2023-07-02T01:11:26;96691.22;;;16.26;90.95
75008;BME280;63554;48.940;12.050;2023-07-02T01:15:29;96681.94;;;16.22;91.58
75008;BME280;63554;48.940;12.050;2023-07-02T01:19:42;96689.06;;;16.18;91.59
75008;BME280;63554;48.940;12.050;2023-07-02T01:23:47;96696.69;;;16.16;92.11
75008;BME280;63554;48.940;12.050;2023-07-02T01:27:49;96693.69;;;16.12;92.26
75008;BME280;63554;48.940;12.050;2023-07-02T01:31:52;96683.59;;;16.08;92.59
75008;BME280;63554;48.940;12.050;2023-07-02T01:35:56;96677.03;;;16.04;92.31
75008;BME280;63554;48.940;12.050;2023-07-02T01:39:59;96689.31;;;16.06;92.19
75008;BME280;63554;48.940;12.050;2023-07-02T01:44:02;96696.16;;;16.04;92.24
75008;BME280;63554;48.940;12.050;2023-07-02T01:48:05;96696.94;;;16.04;92.47
75008;BME280;63554;48.940;12.050;2023-07-02T01:52:09;96699.94;;;16.02;93.01
75008;BME280;63554;48.940;12.050;2023-07-02T01:56:12;96703.50;;;15.98;93.03
75008;BME280;63554;48.940;12.050;2023-07-02T02:00:15;96703.47;;;15.93;92.99
75008;BME280;63554;48.940;12.050;2023-07-02T02:04:19;96717.09;;;15.82;94.36
75008;BME280;63554;48.940;12.050;2023-07-02T02:08:23;96726.38;;;15.76;94.69
75008;BME280;63554;48.940;12.050;2023-07-02T02:12:25;96727.41;;;15.70;95.48
75008;BME280;63554;48.940;12.050;2023-07-02T02:16:29;96729.03;;;15.66;95.60
75008;BME280;63554;48.940;12.050;2023-07-02T02:20:35;96730.13;;;15.65;95.59
75008;BME280;63554;48.940;12.050;2023-07-02T02:24:39;96723.31;;;15.62;95.59
75008;BME280;63554;48.940;12.050;2023-07-02T02:28:42;96726.84;;;15.63;95.19
75008;BME280;63554;48.940;12.050;2023-07-02T02:32:45;96729.31;;;15.65;93.83
75008;BME280;63554;48.940;12.050;2023-07-02T02:36:48;96723.28;;;15.68;91.25
75008;BME280;63554;48.940;12.050;2023-07-02T02:40:52;96721.44;;;15.73;88.29
75008;BME280;63554;48.940;12.050;2023-07-02T02:44:55;96723.38;;;15.78;85.28
75008;BME280;63554;48.940;12.050;2023-07-02T02:48:58;96705.38;;;15.82;83.66
75008;BME280;63554;48.940;12.050;2023-07-02T02:53:00;96719.28;;;15.86;82.84
75008;BME280;63554;48.940;12.050;2023-07-02T02:57:05;96711.09;;;15.86;81.29
75008;BME280;63554;48.940;12.050;2023-07-02T03:01:08;96702.09;;;15.85;80.82
75008;BME280;63554;48.940;12.050;2023-07-02T03:05:12;96712.50;;;15.88;80.80
75008;BME280;63554;48.940;12.050;2023-07-02T03:09:17;96707.56;;;15.90;79.78
75008;BME280;63554;48.940;12.050;2023-07-02T03:13:22;96702.66;;;15.92;81.18
75008;BME280;63554;48.940;12.050;2023-07-02T03:17:24;96701.03;;;15.86;81.63
75008;BME280;63554;48.940;12.050;2023-07-02T03:21:28;96710.28;;;15.85;81.38
75008;BME280;63554;48.940;12.050;2023-07-02T03:25:31;96716.84;;;15.84;81.65
75008;BME280;63554;48.940;12.050;2023-07-02T03:29:35;96721.72;;;15.77;82.15
75008;BME280;63554;48.940;12.050;2023-07-02T03:33:39;96721.72;;;15.77;82.65
75008;BME280;63554;48.940;12.050;2023-07-02T03:37:42;96719.53;;;15.74;83.07
75008;BME280;63554;48.940;12.050;2023-07-02T03:41:45;96724.41;;;15.72;83.54
75008;BME280;63554;48.940;12.050;2023-07-02T03:45:49;96738.03;;;15.72;84.85
75008;BME280;63554;48.940;12.050;2023-07-02T03:49:52;96732.88;;;15.70;85.68
75008;BME280;63554;48.940;12.050;2023-07-02T03:53:55;96735.03;;;15.63;87.08
75008;BME280;63554;48.940;12.050;2023-07-02T03:57:58;96739.38;;;15.59;87.73
75008;BME280;63554;48.940;12.050;2023-07-02T04:02:03;96752.97;;;15.54;88.14
75008;BME280;63554;48.940;12.050;2023-07-02T04:06:06;96763.59;;;15.50;89.09
75008;BME280;63554;48.940;12.050;2023-07-02T04:10:09;96778.84;;;15.46;89.14
75008;BME280;63554;48.940;12.050;2023-07-02T04:14:11;96775.88;;;15.48;88.90
75008;BME280;63554;48.940;12.050;2023-07-02T04:18:15;96774.78;;;15.49;88.29
75008;BME280;63554;48.940;12.050;2023-07-02T04:22:18;96785.41;;;15.50;88.65
75008;BME280;63554;48.940;12.050;2023-07-02T04:26:21;96778.88;;;15.51;88.05
75008;BME280;63554;48.940;12.050;2023-07-02T04:30:43;96784.09;;;15.58;86.69
75008;BME280;63554;48.940;12.050;2023-07-02T04:34:49;96787.91;;;15.62;86.55
75008;BME280;63554;48.940;12.050;2023-07-02T04:38:52;96789.66;;;15.73;86.35
75008;BME280;63554;48.940;12.050;2023-07-02T04:42:54;96795.94;;;15.79;85.84
75008;BME280;63554;48.940;12.050;2023-07-02T04:47:00;96795.44;;;15.82;84.53
75008;BME280;63554;48.940;12.050;2023-07-02T04:51:04;96789.72;;;15.89;83.17
75008;BME280;63554;48.940;12.050;2023-07-02T04:55:08;96783.47;;;15.98;83.00
75008;BME280;63554;48.940;12.050;2023-07-02T04:59:10;96794.41;;;16.09;83.22
75008;BME280;63554;48.940;12.050;2023-07-02T05:03:13;96804.53;;;16.13;82.69
75008;BME280;63554;48.940;12.050;2023-07-02T05:07:17;96810.28;;;16.22;82.40
75008;BME280;63554;48.940;12.050;2023-07-02T05:11:20;96816.78;;;16.11;81.92
75008;BME280;63554;48.940;12.050;2023-07-02T05:15:23;96828.53;;;16.06;81.65
75008;BME280;63554;48.940;12.050;2023-07-02T05:19:26;96826.59;;;16.07;81.77
75008;BME280;63554;48.940;12.050;2023-07-02T05:23:30;96832.34;;;16.10;81.58
75008;BME280;63554;48.940;12.050;2023-07-02T05:27:33;96835.91;;;16.11;81.79
75008;BME280;63554;48.940;12.050;2023-07-02T05:31:36;96837.81;;;16.10;81.20
75008;BME280;63554;48.940;12.050;2023-07-02T05:35:38;96836.19;;;16.14;81.50
75008;BME280;63554;48.940;12.050;2023-07-02T05:39:42;96852.34;;;16.21;81.85
75008;BME280;63554;48.940;12.050;2023-07-02T05:43:45;96852.06;;;16.28;80.11
75008;BME280;63554;48.940;12.050;2023-07-02T05:47:48;96852.66;;;16.45;79.46
75008;BME280;63554;48.940;12.050;2023-07-02T05:51:51;96862.78;;;16.60;78.59
75008;BME280;63554;48.940;12.050;2023-07-02T05:55:56;96855.13;;;16.62;79.11
75008;BME280;63554;48.940;12.050;2023-07-02T05:59:58;96858.16;;;16.66;76.03
75008;BME280;63554;48.940;12.050;2023-07-02T06:04:01;96855.72;;;16.64;73.41
75008;BME280;63554;48.940;12.050;2023-07-02T06:08:04;96859.00;;;16.66;74.52
75008;BME280;63554;48.940;12.050;2023-07-02T06:12:09;96875.38;;;16.61;71.83
75008;BME280;63554;48.940;12.050;2023-07-02T06:16:11;96875.63;;;16.59;71.25
75008;BME280;63554;48.940;12.050;2023-07-02T06:20:14;96879.72;;;16.52;71.67
75008;BME280;63554;48.940;12.050;2023-07-02T06:24:18;96875.06;;;16.52;72.31
75008;BME280;63554;48.940;12.050;2023-07-02T06:28:22;96894.19;;;16.47;72.61
75008;BME280;63554;48.940;12.050;2023-07-02T06:32:25;96913.56;;;16.46;71.78
75008;BME280;63554;48.940;12.050;2023-07-02T06:36:28;96906.97;;;16.36;72.26
75008;BME280;63554;48.940;12.050;2023-07-02T06:40:30;96908.31;;;16.29;73.15
75008;BME280;63554;48.940;12.050;2023-07-02T06:44:34;96906.41;;;16.29;72.66
75008;BME280;63554;48.940;12.050;2023-07-02T06:48:37;96909.69;;;16.26;72.16
75008;BME280;63554;48.940;12.050;2023-07-02T06:52:40;96915.44;;;16.30;71.95
75008;BME280;63554;48.940;12.050;2023-07-02T06:56:43;96917.88;;;16.21;71.74
75008;BME280;63554;48.940;12.050;2023-07-02T07:00:47;96922.47;;;16.15;73.01
75008;BME280;63554;48.940;12.050;2023-07-02T07:04:50;96922.75;;;16.19;73.74
75008;BME280;63554;48.940;12.050;2023-07-02T07:08:53;96929.91;;;16.25;73.20
75008;BME280;63554;48.940;12.050;2023-07-02T07:12:56;96933.19;;;16.27;72.04
75008;BME280;63554;48.940;12.050;2023-07-02T07:17:00;96929.34;;;16.28;72.66
75008;BME280;63554;48.940;12.050;2023-07-02T07:21:04;96921.97;;;16.24;70.63
75008;BME280;63554;48.940;12.050;2023-07-02T07:25:08;96923.91;;;16.38;70.57
75008;BME280;63554;48.940;12.050;2023-07-02T07:29:11;96935.66;;;16.34;68.52
75008;BME280;63554;48.940;12.050;2023-07-02T07:33:15;96930.22;;;16.39;67.59
75008;BME280;63554;48.940;12.050;2023-07-02T07:37:17;96925.56;;;16.39;67.00
75008;BME280;63554;48.940;12.050;2023-07-02T07:41:20;96923.19;;;16.58;65.43
75008;BME280;63554;48.940;12.050;2023-07-02T07:45:23;96922.91;;;16.65;65.19
75008;BME280;63554;48.940;12.050;2023-07-02T07:49:27;96926.75;;;16.64;63.67
75008;BME280;63554;48.940;12.050;2023-07-02T07:53:30;96928.09;;;16.72;63.51
75008;BME280;63554;48.940;12.050;2023-07-02T07:57:34;96935.47;;;16.61;63.85
75008;BME280;63554;48.940;12.050;2023-07-02T08:01:37;96928.91;;;16.62;63.22
75008;BME280;63554;48.940;12.050;2023-07-02T08:05:42;96927.00;;;16.68;63.24
75008;BME280;63554;48.940;12.050;2023-07-02T08:09:44;96927.34;;;16.82;63.80
75008;BME280;63554;48.940;12.050;2023-07-02T08:13:47;96932.03;;;17.02;62.24
75008;BME280;63554;48.940;12.050;2023-07-02T08:17:51;96933.94;;;16.96;63.55
75008;BME280;63554;48.940;12.050;2023-07-02T08:21:57;96935.88;;;17.06;64.43
75008;BME280;63554;48.940;12.050;2023-07-02T08:26:00;96933.16;;;17.16;63.17
75008;BME280;63554;48.940;12.050;2023-07-02T08:30:04;96948.19;;;17.13;62.69
75008;BME280;63554;48.940;12.050;2023-07-02T08:34:07;96943.00;;;17.22;62.71
75008;BME280;63554;48.940;12.050;2023-07-02T08:38:11;96940.53;;;17.46;64.08
75008;BME280;63554;48.940;12.050;2023-07-02T08:42:14;96935.88;;;17.52;64.71
75008;BME280;63554;48.940;12.050;2023-07-02T08:46:17;96935.84;;;17.77;61.46
75008;BME280;63554;48.940;12.050;2023-07-02T08:50:20;96941.78;;;18.21;59.70
75008;BME280;63554;48.940;12.050;2023-07-02T08:54:24;96948.00;;;18.47;56.97
75008;BME280;63554;48.940;12.050;2023-07-02T08:58:26;96940.13;;;18.25;58.03
75008;BME280;63554;48.940;12.050;2023-07-02T09:02:31;96949.00;;;17.96;57.02
75008;BME280;63554;48.940;12.050;2023-07-02T09:06:34;96941.00;;;18.05;57.58
75008;BME280;63554;48.940;12.050;2023-07-02T09:10:38;96943.38;;;18.37;56.07
75008;BME280;63554;48.940;12.050;2023-07-02T09:14:41;96928.56;;;18.43;55.82
75008;BME280;63554;48.940;12.050;2023-07-02T09:18:43;96944.88;;;18.69;56.53
75008;BME280;63554;48.940;12.050;2023-07-02T09:22:53;96932.50;;;18.76;57.10
75008;BME280;63554;48.940;12.050;2023-07-02T09:26:58;96937.25;;;18.55;57.02
75008;BME280;63554;48.940;12.050;2023-07-02T09:31:01;96932.94;;;18.44;57.07
75008;BME280;63554;48.940;12.050;2023-07-02T09:35:05;96935.31;;;19.11;56.52
75008;BME280;63554;48.940;12.050;2023-07-02T09:39:11;96926.25;;;19.15;55.08
75008;BME280;63554;48.940;12.050;2023-07-02T09:43:15;96927.94;;;19.06;55.68
75008;BME280;63554;48.940;12.050;2023-07-02T09:47:21;96932.03;;;19.09;55.24
75008;BME280;63554;48.940;12.050;2023-07-02T09:51:24;96912.50;;;19.50;52.04
75008;BME280;63554;48.940;12.050;2023-07-02T09:55:28;96917.41;;;20.35;51.66
75008;BME280;63554;48.940;12.050;2023-07-02T09:59:32;96918.19;;;19.29;50.73
75008;BME280;63554;48.940;12.050;2023-07-02T10:03:34;96916.28;;;19.25;51.62
75008;BME280;63554;48.940;12.050;2023-07-02T10:07:39;96915.22;;;19.21;51.92
75008;BME280;63554;48.940;12.050;2023-07-02T10:11:42;96909.88;;;19.69;50.71
75008;BME280;63554;48.940;12.050;2023-07-02T10:15:47;96912.91;;;19.72;49.16
75008;BME280;63554;48.940;12.050;2023-07-02T10:19:50;96910.16;;;19.72;47.60
75008;BME280;63554;48.940;12.050;2023-07-02T10:23:54;96911.84;;;19.92;47.93
75008;BME280;63554;48.940;12.050;2023-07-02T10:27:57;96916.91;;;20.09;49.43
75008;BME280;63554;48.940;12.050;2023-07-02T10:32:02;96913.34;;;20.52;46.13
75008;BME280;63554;48.940;12.050;2023-07-02T10:36:17;96906.56;;;20.87;45.87
75008;BME280;63554;48.940;12.050;2023-07-02T10:40:22;96907.63;;;20.91;46.01
75008;BME280;63554;48.940;12.050;2023-07-02T10:44:25;96903.91;;;21.01;45.31
75008;BME280;63554;48.940;12.050;2023-07-02T10:48:29;96907.34;;;20.74;45.10
75008;BME280;63554;48.940;12.050;2023-07-02T10:52:37;96907.97;;;20.66;44.56
75008;BME280;63554;48.940;12.050;2023-07-02T10:56:41;96915.72;;;20.83;44.52
75008;BME280;63554;48.940;12.050;2023-07-02T11:00:44;96904.44;;;21.36;43.72
75008;BME280;63554;48.940;12.050;2023-07-02T11:04:49;96910.44;;;21.05;43.84
75008;BME280;63554;48.940;12.050;2023-07-02T11:08:52;96906.63;;;21.20;43.25
75008;BME280;63554;48.940;12.050;2023-07-02T11:12:56;96910.69;;;21.61;43.54
75008;BME280;63554;48.940;12.050;2023-07-02T11:17:01;96919.34;;;21.16;42.91
75008;BME280;63554;48.940;12.050;2023-07-02T11:21:10;96912.00;;;20.92;44.85
75008;BME280;63554;48.940;12.050;2023-07-02T11:25:15;96910.28;;;20.78;44.22
75008;BME280;63554;48.940;12.050;2023-07-02T11:29:18;96906.91;;;21.19;43.43
75008;BME280;63554;48.940;12.050;2023-07-02T11:33:32;96913.31;;;21.33;42.06
75008;BME280;63554;48.940;12.050;2023-07-02T11:37:36;96916.94;;;21.80;39.76
75008;BME280;63554;48.940;12.050;2023-07-02T11:41:40;96911.03;;;21.21;41.01
75008;BME280;63554;48.940;12.050;2023-07-02T11:45:43;96907.25;;;20.98;42.11
75008;BME280;63554;48.940;12.050;2023-07-02T11:49:46;96902.09;;;21.10;41.78
75008;BME280;63554;48.940;12.050;2023-07-02T11:53:50;96898.00;;;22.06;39.34
75008;BME280;63554;48.940;12.050;2023-07-02T11:57:52;96910.06;;;21.64;40.15
75008;BME280;63554;48.940;12.050;2023-07-02T12:01:55;96904.66;;;21.59;39.41
75008;BME280;63554;48.940;12.050;2023-07-02T12:05:58;96903.13;;;21.52;39.08
75008;BME280;63554;48.940;12.050;2023-07-02T12:10:03;96903.50;;;21.92;40.37
75008;BME280;63554;48.940;12.050;2023-07-02T12:14:06;96897.00;;;21.69;39.88
75008;BME280;63554;48.940;12.050;2023-07-02T12:18:09;96925.28;;;22.36;39.03
75008;BME280;63554;48.940;12.050;2023-07-02T12:22:12;96905.38;;;21.64;39.30
75008;BME280;63554;48.940;12.050;2023-07-02T12:26:19;96899.91;;;21.92;38.83
75008;BME280;63554;48.940;12.050;2023-07-02T12:30:21;96902.44;;;21.42;39.20
75008;BME280;63554;48.940;12.050;2023-07-02T12:34:24;96893.78;;;22.09;38.63
75008;BME280;63554;48.940;12.050;2023-07-02T12:38:28;96877.25;;;23.01;37.66
75008;BME280;63554;48.940;12.050;2023-07-02T12:42:32;96875.78;;;23.94;35.22
75008;BME280;63554;48.940;12.050;2023-07-02T12:46:35;96887.44;;;23.14;35.70
75008;BME280;63554;48.940;12.050;2023-07-02T12:50:38;96879.97;;;23.15;35.29
75008;BME280;63554;48.940;12.050;2023-07-02T12:54:41;96881.97;;;23.45;35.64
75008;BME280;63554;48.940;12.050;2023-07-02T12:58:45;96889.53;;;22.58;37.25
75008;BME280;63554;48.940;12.050;2023-07-02T13:02:48;96883.59;;;22.23;36.92
75008;BME280;63554;48.940;12.050;2023-07-02T13:07:06;96872.59;;;23.24;35.58
75008;BME280;63554;48.940;12.050;2023-07-02T13:11:08;96871.84;;;23.63;34.90
75008;BME280;63554;48.940;12.050;2023-07-02T13:15:12;96866.34;;;24.43;36.22
75008;BME280;63554;48.940;12.050;2023-07-02T13:19:15;96878.03;;;24.98;32.69
75008;BME280;63554;48.940;12.050;2023-07-02T13:23:18;96887.56;;;24.65;33.08
75008;BME280;63554;48.940;12.050;2023-07-02T13:27:21;96869.16;;;24.03;33.42
75008;BME280;63554;48.940;12.050;2023-07-02T13:31:25;96862.03;;;24.69;33.03
75008;BME280;63554;48.940;12.050;2023-07-02T13:35:28;96863.16;;;24.01;33.66
75008;BME280;63554;48.940;12.050;2023-07-02T13:39:30;96867.53;;;24.02;33.95
75008;BME280;63554;48.940;12.050;2023-07-02T13:43:33;96870.31;;;23.26;35.06
75008;BME280;63554;48.940;12.050;2023-07-02T13:47:38;96871.94;;;23.49;34.63
75008;BME280;63554;48.940;12.050;2023-07-02T13:51:41;96873.44;;;24.18;33.54
75008;BME280;63554;48.940;12.050;2023-07-02T13:55:43;96861.47;;;23.92;34.68
75008;BME280;63554;48.940;12.050;2023-07-02T13:59:47;96855.00;;;24.54;34.12
75008;BME280;63554;48.940;12.050;2023-07-02T14:03:50;96882.47;;;24.41;33.70
75008;BME280;63554;48.940;12.050;2023-07-02T14:07:54;96867.06;;;24.58;32.28
75008;BME280;63554;48.940;12.050;2023-07-02T14:11:57;96873.44;;;24.58;33.28
75008;BME280;63554;48.940;12.050;2023-07-02T14:16:01;96857.94;;;24.00;34.11
75008;BME280;63554;48.940;12.050;2023-07-02T14:20:05;96849.59;;;23.91;33.71
75008;BME280;63554;48.940;12.050;2023-07-02T14:24:08;96864.50;;;24.88;33.21
75008;BME280;63554;48.940;12.050;2023-07-02T14:28:12;96865.97;;;25.02;31.70
75008;BME280;63554;48.940;12.050;2023-07-02T14:32:16;96863.50;;;25.01;31.86
75008;BME280;63554;48.940;12.050;2023-07-02T14:36:19;96850.00;;;25.43;30.91
75008;BME280;63554;48.940;12.050;2023-07-02T14:40:22;96864.19;;;25.33;29.88
75008;BME280;63554;48.940;12.050;2023-07-02T14:44:25;96858.47;;;24.85;30.92
75008;BME280;63554;48.940;12.050;2023-07-02T14:48:29;96853.72;;;25.38;31.07
75008;BME280;63554;48.940;12.050;2023-07-02T14:52:32;96851.97;;;25.34;30.07
75008;BME280;63554;48.940;12.050;2023-07-02T14:56:35;96857.16;;;25.18;30.88
75008;BME280;63554;48.940;12.050;2023-07-02T15:00:43;96860.91;;;24.87;30.38
75008;BME280;63554;48.940;12.050;2023-07-02T15:04:47;96865.66;;;25.39;30.12
75008;BME280;63554;48.940;12.050;2023-07-02T15:08:50;96860.75;;;24.75;30.92
75008;BME280;63554;48.940;12.050;2023-07-02T15:12:53;96845.25;;;24.65;31.72
75008;BME280;63554;48.940;12.050;2023-07-02T15:16:55;96837.47;;;25.02;31.42
75008;BME280;63554;48.940;12.050;2023-07-02T15:21:00;96841.16;;;25.58;31.68
75008;BME280;63554;48.940;12.050;2023-07-02T15:25:04;96846.75;;;25.32;31.32
75008;BME280;63554;48.940;12.050;2023-07-02T15:29:06;96852.03;;;24.41;32.16
75008;BME280;63554;48.940;12.050;2023-07-02T15:33:09;96849.34;;;25.11;31.56
75008;BME280;63554;48.940;12.050;2023-07-02T15:37:13;96843.66;;;25.25;31.00
75008;BME280;63554;48.940;12.050;2023-07-02T15:41:17;96860.22;;;24.55;32.35
75008;BME280;63554;48.940;12.050;2023-07-02T15:45:20;96859.59;;;24.67;32.22
75008;BME280;63554;48.940;12.050;2023-07-02T15:49:24;96848.69;;;24.88;32.16
75008;BME280;63554;48.940;12.050;2023-07-02T15:53:29;96849.03;;;25.21;31.92
75008;BME280;63554;48.940;12.050;2023-07-02T15:57:31;96852.44;;;24.75;32.04
75008;BME280;63554;48.940;12.050;2023-07-02T16:01:35;96844.31;;;24.96;32.57
75008;BME280;63554;48.940;12.050;2023-07-02T16:05:40;96843.66;;;24.73;32.45
75008;BME280;63554;48.940;12.050;2023-07-02T16:09:44;96830.78;;;25.12;31.88
75008;BME280;63554;48.940;12.050;2023-07-02T16:13:47;96832.09;;;25.23;31.86
75008;BME280;63554;48.940;12.050;2023-07-02T16:17:50;96836.13;;;25.34;31.95
75008;BME280;63554;48.940;12.050;2023-07-02T16:21:53;96832.72;;;25.02;32.07
75008;BME280;63554;48.940;12.050;2023-07-02T16:25:59;96845.91;;;24.53;33.26
75008;BME280;63554;48.940;12.050;2023-07-02T16:30:04;96832.25;;;24.83;32.96
75008;BME280;63554;48.940;12.050;2023-07-02T16:34:07;96829.81;;;24.90;32.98
75008;BME280;63554;48.940;12.050;2023-07-02T16:38:11;96835.19;;;25.04;33.12
75008;BME280;63554;48.940;12.050;2023-07-02T16:42:15;96832.25;;;24.83;32.61
75008;BME280;63554;48.940;12.050;2023-07-02T16:46:18;96835.50;;;24.67;33.10
75008;BME280;63554;48.940;12.050;2023-07-02T16:50:21;96834.34;;;24.77;33.50
75008;BME280;63554;48.940;12.050;2023-07-02T16:54:24;96836.97;;;24.91;33.02
75008;BME280;63554;48.940;12.050;2023-07-02T16:58:30;96845.28;;;24.82;32.99
75008;BME280;63554;48.940;12.050;2023-07-02T17:02:34;96848.38;;;24.90;33.30
75008;BME280;63554;48.940;12.050;2023-07-02T17:06:37;96837.13;;;24.69;33.48
75008;BME280;63554;48.940;12.050;2023-07-02T17:10:40;96854.56;;;24.78;33.34
75008;BME280;63554;48.940;12.050;2023-07-02T17:14:46;96852.75;;;24.73;33.55
75008;BME280;63554;48.940;12.050;2023-07-02T17:18:50;96849.03;;;24.78;34.22
75008;BME280;63554;48.940;12.050;2023-07-02T17:22:52;96857.63;;;24.59;33.36
75008;BME280;63554;48.940;12.050;2023-07-02T17:26:56;96851.97;;;24.24;34.35
75008;BME280;63554;48.940;12.050;2023-07-02T17:31:01;96855.34;;;24.03;34.83
75008;BME280;63554;48.940;12.050;2023-07-02T17:35:05;96854.97;;;23.96;33.80
75008;BME280;63554;48.940;12.050;2023-07-02T17:39:15;96852.69;;;23.90;34.40
75008;BME280;63554;48.940;12.050;2023-07-02T17:43:18;96855.72;;;23.79;34.75
75008;BME280;63554;48.940;12.050;2023-07-02T17:47:24;96849.47;;;23.74;34.92
75008;BME280;63554;48.940;12.050;2023-07-02T17:51:26;96852.56;;;23.72;35.21
75008;BME280;63554;48.940;12.050;2023-07-02T17:55:29;96860.13;;;23.58;35.10
75008;BME280;63554;48.940;12.050;2023-07-02T17:59:32;96853.41;;;23.50;35.54
75008;BME280;63554;48.940;12.050;2023-07-02T18:03:37;96857.13;;;23.45;36.04
75008;BME280;63554;48.940;12.050;2023-07-02T18:07:40;96859.47;;;23.29;36.25
75008;BME280;63554;48.940;12.050;2023-07-02T18:11:43;96867.81;;;23.16;36.52
75008;BME280;63554;48.940;12.050;2023-07-02T18:15:47;96868.69;;;22.88;36.34
75008;BME280;63554;48.940;12.050;2023-07-02T18:19:54;96866.50;;;22.77;37.36
75008;BME280;63554;48.940;12.050;2023-07-02T18:23:58;96868.13;;;22.64;37.14
75008;BME280;63554;48.940;12.050;2023-07-02T18:28:04;96868.38;;;22.54;37.71
75008;BME280;63554;48.940;12.050;2023-07-02T18:32:07;96875.22;;;22.42;37.95
75008;BME280;63554;48.940;12.050;2023-07-02T18:36:14;96876.16;;;22.38;38.16
75008;BME280;63554;48.940;12.050;2023-07-02T18:40:18;96871.47;;;22.24;38.44
75008;BME280;63554;48.940;12.050;2023-07-02T18:44:23;96874.41;;;22.14;38.98
75008;BME280;63554;48.940;12.050;2023-07-02T18:48:27;96879.31;;;21.89;39.92
75008;BME280;63554;48.940;12.050;2023-07-02T18:52:31;96881.44;;;21.79;40.22
75008;BME280;63554;48.940;12.050;2023-07-02T18:56:34;96880.50;;;21.69;40.90
75008;BME280;63554;48.940;12.050;2023-07-02T19:00:37;96890.38;;;21.57;40.11
75008;BME280;63554;48.940;12.050;2023-07-02T19:04:39;96885.16;;;21.36;40.58
75008;BME280;63554;48.940;12.050;2023-07-02T19:08:44;96891.06;;;21.29;40.96
75008;BME280;63554;48.940;12.050;2023-07-02T19:12:48;96887.66;;;21.19;42.15
75008;BME280;63554;48.940;12.050;2023-07-02T19:16:51;96894.66;;;21.11;42.41
75008;BME280;63554;48.940;12.050;2023-07-02T19:20:57;96894.25;;;21.04;42.60
75008;BME280;63554;48.940;12.050;2023-07-02T19:25:02;96896.91;;;20.90;43.03
75008;BME280;63554;48.940;12.050;2023-07-02T19:29:06;96905.91;;;20.77;43.45
75008;BME280;63554;48.940;12.050;2023-07-02T19:33:14;96909.44;;;20.58;43.83
75008;BME280;63554;48.940;12.050;2023-07-02T19:37:17;96916.19;;;20.47;44.45
75008;BME280;63554;48.940;12.050;2023-07-02T19:41:21;96915.03;;;20.29;45.33
75008;BME280;63554;48.940;12.050;2023-07-02T19:45:24;96926.47;;;20.12;46.43
75008;BME280;63554;48.940;12.050;2023-07-02T19:49:27;96921.69;;;19.99;46.49
75008;BME280;63554;48.940;12.050;2023-07-02T19:53:31;96930.91;;;19.84;46.97
75008;BME280;63554;48.940;12.050;2023-07-02T19:57:37;96929.38;;;19.67;47.07
75008;BME280;63554;48.940;12.050;2023-07-02T20:01:40;96940.22;;;19.53;48.20
75008;BME280;63554;48.940;12.050;2023-07-02T20:05:43;96943.16;;;19.28;48.61
75008;BME280;63554;48.940;12.050;2023-07-02T20:09:46;96957.53;;;19.14;49.35
75008;BME280;63554;48.940;12.050;2023-07-02T20:13:50;96962.28;;;18.99;49.81
75008;BME280;63554;48.940;12.050;2023-07-02T20:17:54;96968.13;;;18.82;50.81
75008;BME280;63554;48.940;12.050;2023-07-02T20:21:56;96966.81;;;18.69;50.14
75008;BME280;63554;48.940;12.050;2023-07-02T20:26:00;96968.22;;;18.61;51.06
75008;BME280;63554;48.940;12.050;2023-07-02T20:30:05;96971.50;;;18.63;51.29
75008;BME280;63554;48.940;12.050;2023-07-02T20:34:09;96974.25;;;18.58;50.92
75008;BME280;63554;48.940;12.050;2023-07-02T20:38:12;96975.91;;;18.54;51.40
75008;BME280;63554;48.940;12.050;2023-07-02T20:42:15;96983.63;;;18.47;51.66
75008;BME280;63554;48.940;12.050;2023-07-02T20:46:20;96977.66;;;18.29;51.91
75008;BME280;63554;48.940;12.050;2023-07-02T20:50:24;96987.00;;;18.18;52.82
75008;BME280;63554;48.940;12.050;2023-07-02T20:54:28;96991.94;;;18.11;53.34
75008;BME280;63554;48.940;12.050;2023-07-02T20:58:31;96981.31;;;17.94;53.63
75008;BME280;63554;48.940;12.050;2023-07-02T21:02:35;96988.13;;;17.81;54.01
75008;BME280;63554;48.940;12.050;2023-07-02T21:06:38;96994.16;;;17.73;54.85
75008;BME280;63554;48.940;12.050;2023-07-02T21:10:41;96989.78;;;17.62;55.70
75008;BME280;63554;48.940;12.050;2023-07-02T21:14:49;97001.53;;;17.52;56.01